Time;durP1;ratioP1;P1;durP2;ratioP2;P2;SDS_P1;SDS_P2;PMS_P1;PMS_P2;Temp;Humidity;BMP_temperature;BMP_pressure;BME280_temperature;BME280_humidity;BME280_pressure;Samples;Min_cycle;Max_cycle;Signal;HPM_P1;HPM_P2
2022/06/21 00:00:13;;;;;;;2.62;2.08;;;;;;;14.66;87.41;99871.02;2711202;87;21091;-61
2022/06/21 00:04:17;;;;;;;7.08;3.40;;;;;;;14.61;87.35;99863.98;2709612;87;21295;-61
2022/06/21 00:08:28;;;;;;;4.08;2.85;;;;;;;14.62;87.27;99857.63;2719580;87;21029;-62
2022/06/21 00:12:29;;;;;;;5.83;2.67;;;;;;;14.57;87.23;99866.66;2702059;85;21043;-62
2022/06/21 00:16:32;;;;;;;6.80;3.65;;;;;;;14.61;87.06;99867.99;2698240;87;21040;-65
2022/06/21 00:20:33;;;;;;;4.78;4.00;;;;;;;14.61;87.22;99873.34;2689511;87;21040;-62
2022/06/21 00:24:46;;;;;;;7.83;4.17;;;;;;;14.60;86.96;99870.34;2691137;87;21073;-61
2022/06/21 00:28:48;;;;;;;4.75;3.40;;;;;;;14.71;86.91;99865.21;2724688;87;21015;-60
2022/06/21 00:32:54;;;;;;;4.60;3.10;;;;;;;14.68;86.59;99863.66;2689929;87;21067;-59
2022/06/21 00:36:59;;;;;;;4.15;3.72;;;;;;;14.65;86.58;99859.97;2705542;87;21076;-60
2022/06/21 00:41:09;;;;;;;;;;;;;;;14.68;86.43;99857.48;2703860;87;21064;-60
2022/06/21 00:45:26;;;;;;;5.30;3.05;;;;;;;14.65;86.08;99859.97;2678534;88;20108;-61
2022/06/21 00:49:39;;;;;;;5.33;3.30;;;;;;;14.53;86.53;99863.94;2680839;87;21043;-59
2022/06/21 00:54:00;;;;;;;6.33;3.35;;;;;;;14.50;86.26;99864.27;2645494;87;21008;-59
2022/06/21 00:58:02;;;;;;;5.15;3.42;;;;;;;14.56;85.61;99867.66;2586289;91;21116;-60
2022/06/21 01:02:09;;;;;;;3.83;2.47;;;;;;;14.52;85.22;99864.94;2625406;90;21060;-63
2022/06/21 01:06:15;;;;;;;5.17;2.75;;;;;;;14.49;85.28;99859.91;2671940;89;21033;-61
2022/06/21 01:10:18;;;;;;;8.98;3.37;;;;;;;14.45;85.53;99858.08;2654754;87;21337;-61
2022/06/21 01:14:23;;;;;;;2.83;2.55;;;;;;;14.36;85.98;99859.89;2657849;87;21059;-61
2022/06/21 01:18:26;;;;;;;2.95;2.27;;;;;;;14.34;86.36;99855.17;2642606;86;21013;-63
2022/06/21 01:22:45;;;;;;;6.17;3.35;;;;;;;14.28;86.68;99857.16;2643642;88;21045;-64
2022/06/21 01:27:00;;;;;;;4.33;2.92;;;;;;;14.24;86.83;99852.62;2593648;87;21075;-59
2022/06/21 01:31:03;;;;;;;7.30;3.58;;;;;;;14.18;86.94;99853.78;2590389;92;21064;-60
2022/06/21 01:35:11;;;;;;;7.10;3.15;;;;;;;14.01;87.15;99856.37;2576910;90;21107;-62
2022/06/21 01:39:26;;;;;;;3.33;2.60;;;;;;;13.83;87.57;99861.28;2666594;88;21075;-61
2022/06/21 01:43:31;;;;;;;5.15;3.12;;;;;;;13.68;88.29;99866.85;2665042;89;21092;-61
2022/06/21 01:47:44;;;;;;;3.08;2.60;;;;;;;13.47;89.19;99869.38;2717897;87;21021;-61
2022/06/21 01:51:56;;;;;;;5.65;3.12;;;;;;;13.29;89.81;99874.20;2680338;88;21082;-60
2022/06/21 01:56:06;;;;;;;6.65;3.42;;;;;;;13.14;90.58;99875.73;2719555;87;21868;-60
2022/06/21 02:00:09;;;;;;;4.30;3.00;;;;;;;13.01;91.42;99880.12;2677195;89;21096;-59
2022/06/21 02:04:15;;;;;;;3.30;2.60;;;;;;;12.96;90.90;99883.23;2691391;87;21007;-62
2022/06/21 02:08:21;;;;;;;5.37;3.22;;;;;;;12.82;91.63;99884.59;2717661;87;21195;-60
2022/06/21 02:12:23;;;;;;;;;;;;;;;12.74;91.97;99878.33;2668388;87;21056;-59
2022/06/21 02:16:26;;;;;;;9.13;3.37;;;;;;;12.60;92.95;99886.35;2693004;86;20096;-60
2022/06/21 02:20:33;;;;;;;5.05;3.72;;;;;;;12.43;93.53;99877.67;2705708;87;21068;-61
2022/06/21 02:24:42;;;;;;;4.90;4.33;;;;;;;12.38;93.35;99876.42;2700768;87;21109;-59
2022/06/21 02:28:45;;;;;;;10.28;3.40;;;;;;;12.34;93.66;99883.88;2706790;87;21068;-59
2022/06/21 02:32:49;;;;;;;9.18;6.20;;;;;;;12.40;93.56;99885.12;2712946;87;21081;-60
2022/06/21 02:36:56;;;;;;;9.33;5.92;;;;;;;12.47;94.16;99885.38;2697081;87;21037;-60
2022/06/21 02:41:20;;;;;;;5.20;4.12;;;;;;;12.57;94.62;99886.14;2723107;86;21052;-59
2022/06/21 02:45:41;;;;;;;4.35;3.95;;;;;;;12.73;94.26;99881.98;2699097;87;21060;-64
2022/06/21 02:54:04;;;;;;;19.17;5.12;;;;;;;12.92;92.91;99883.70;2778191;82;21138;-64
2022/06/21 02:58:12;;;;;;;5.92;4.62;;;;;;;12.96;92.20;99888.57;2674079;87;21010;-60
2022/06/21 03:02:18;;;;;;;5.85;4.62;;;;;;;13.00;91.83;99884.64;2664545;89;21116;-62
2022/06/21 03:06:22;;;;;;;6.85;3.98;;;;;;;13.06;91.77;99875.66;2691619;87;21095;-61
2022/06/21 03:10:31;;;;;;;10.08;4.58;;;;;;;13.02;91.84;99869.78;2692639;87;21025;-61
2022/06/21 03:14:41;;;;;;;4.10;2.85;;;;;;;12.94;91.96;99873.20;2660553;88;21068;-63
2022/06/21 03:18:48;;;;;;;7.67;4.25;;;;;;;12.92;91.94;99876.52;2692962;86;21052;-59
2022/06/21 03:22:53;;;;;;;7.47;3.52;;;;;;;12.88;92.16;99877.83;2634490;85;71252;-91
2022/06/21 03:27:06;;;;;;;8.40;3.47;;;;;;;12.77;92.70;99877.55;2588530;90;21051;-95
2022/06/21 03:31:29;;;;;;;7.45;3.87;;;;;;;12.88;92.48;99874.33;2578417;89;21103;-92
2022/06/21 03:35:34;;;;;;;11.05;3.87;;;;;;;12.99;91.87;99877.62;2608513;87;21026;-93
2022/06/21 03:43:59;;;;;;;3.90;3.10;;;;;;;13.07;91.84;99881.34;2674569;87;21063;-93
2022/06/21 03:48:26;;;;;;;5.70;3.62;;;;;;;13.15;91.54;99896.09;2673660;87;21043;-92
2022/06/21 03:52:42;;;;;;;;;;;;;;;13.23;90.98;99894.00;2676465;87;21098;-92
2022/06/21 03:57:04;;;;;;;4.10;3.10;;;;;;;13.33;89.99;99888.58;2679506;87;20170;-93
2022/06/21 04:01:23;;;;;;;3.60;2.92;;;;;;;13.37;88.86;99881.97;2707556;87;21075;-89
2022/06/21 04:05:30;;;;;;;3.98;2.62;;;;;;;13.34;88.26;99899.12;2706817;87;21058;-94
2022/06/21 04:09:55;;;;;;;4.65;3.20;;;;;;;13.47;88.29;99892.59;2671192;89;21039;-94
2022/06/21 04:14:14;;;;;;;2.55;2.17;;;;;;;13.50;87.44;99898.45;2671880;87;21062;-92
2022/06/21 04:18:32;;;;;;;3.62;2.42;;;;;;;13.54;86.68;99897.14;2583276;90;21041;-92
2022/06/21 04:22:44;;;;;;;9.88;3.70;;;;;;;13.82;85.69;99906.88;2567082;91;21111;-94
2022/06/21 04:26:57;;;;;;;3.30;2.75;;;;;;;14.48;84.34;99892.55;2531408;92;21516;-95
2022/06/21 04:31:20;;;;;;;4.95;4.20;;;;;;;15.39;80.46;99899.45;2524455;92;21135;-92
2022/06/21 04:35:32;;;;;;;5.17;3.10;;;;;;;15.59;77.69;99907.68;2535211;91;21201;-93
2022/06/21 04:39:51;;;;;;;7.90;3.12;;;;;;;15.70;77.45;99911.34;2536158;93;21074;-93
2022/06/21 04:44:06;;;;;;;5.00;3.27;;;;;;;15.61;76.41;99923.91;2535285;92;21100;-90
2022/06/21 04:48:38;;;;;;;9.50;2.98;;;;;;;15.78;76.95;99916.72;2541325;92;21102;-93
2022/06/21 04:52:44;;;;;;;4.15;2.87;;;;;;;15.65;76.72;99917.23;2526692;92;21108;-93
2022/06/21 04:57:08;;;;;;;7.60;3.85;;;;;;;15.31;77.83;99922.72;2682553;87;21078;-94
2022/06/21 05:05:33;;;;;;;4.72;2.75;;;;;;;15.84;75.64;99916.55;2632746;87;21098;-94
2022/06/21 05:09:35;;;;;;;6.55;2.75;;;;;;;16.22;74.79;99910.14;2699205;87;21015;-93
2022/06/21 05:13:41;;;;;;;6.08;2.70;;;;;;;16.78;72.02;99889.59;2669598;87;21082;-92
2022/06/21 05:17:50;;;;;;;20.05;3.27;;;;;;;17.14;71.20;99890.42;2646499;87;21047;-91
2022/06/21 05:22:27;;;;;;;3.70;2.77;;;;;;;17.55;69.29;99884.72;2679985;87;21043;-95
2022/06/21 05:26:47;;;;;;;3.85;3.45;;;;;;;17.30;68.98;99900.73;2610526;89;21039;-96
2022/06/21 05:31:19;;;;;;;2.98;2.50;;;;;;;17.34;69.95;99896.66;2587973;91;21177;-91
2022/06/21 05:35:28;;;;;;;6.25;2.80;;;;;;;17.16;69.48;99913.92;2554633;92;21114;-92
2022/06/21 05:39:38;;;;;;;6.40;3.05;;;;;;;17.72;69.47;99920.89;2556012;92;21062;-93
2022/06/21 05:43:42;;;;;;;6.97;2.58;;;;;;;17.74;68.54;99902.71;2483269;94;21121;-92
2022/06/21 05:47:55;;;;;;;3.52;2.67;;;;;;;17.17;68.89;99927.68;2552568;92;21091;-91
2022/06/21 05:52:01;;;;;;;7.28;3.47;;;;;;;17.22;68.83;99916.41;2511054;93;21096;-91
2022/06/21 05:56:13;;;;;;;3.20;2.65;;;;;;;17.20;69.69;99931.36;2506564;94;22404;-95
2022/06/21 06:00:32;;;;;;;4.25;3.08;;;;;;;17.58;68.42;99916.30;2494660;94;21052;-92
2022/06/21 06:04:51;;;;;;;2.67;2.05;;;;;;;17.36;68.91;99934.42;2584799;89;21171;-91
2022/06/21 06:09:00;;;;;;;4.50;3.15;;;;;;;17.47;68.55;99932.35;2705013;87;21034;-93
2022/06/21 06:13:06;;;;;;;6.92;2.50;;;;;;;17.10;69.45;99934.80;2700545;87;21618;-91
2022/06/21 06:17:34;;;;;;;3.70;2.98;;;;;;;17.19;70.04;99931.52;2696017;87;21128;-90
2022/06/21 06:21:44;;;;;;;4.28;2.85;;;;;;;17.71;68.48;99931.32;2692550;87;30646;-92
2022/06/21 06:25:53;;;;;;;4.30;1.85;;;;;;;17.99;67.03;99926.68;2680091;87;21090;-90
2022/06/21 06:29:59;;;;;;;2.05;1.72;;;;;;;17.84;65.98;99915.91;2679608;87;21043;-90
2022/06/21 06:34:07;;;;;;;2.27;1.52;;;;;;;18.05;66.20;99927.84;2691887;87;21629;-91
2022/06/21 06:38:13;;;;;;;2.40;2.05;;;;;;;17.77;67.15;99939.16;2695561;87;21111;-91
2022/06/21 06:42:21;;;;;;;5.33;2.40;;;;;;;17.65;67.01;99940.95;2689196;87;21676;-89
2022/06/21 06:46:34;;;;;;;2.62;1.47;;;;;;;18.06;67.72;99953.20;2688359;87;21146;-88
2022/06/21 06:50:43;;;;;;;5.72;2.35;;;;;;;18.09;66.42;99946.63;2689875;87;21102;-90
2022/06/21 06:54:59;;;;;;;6.00;2.42;;;;;;;18.15;67.00;99947.76;2680005;87;21019;-90
2022/06/21 06:59:05;;;;;;;20.57;4.77;;;;;;;18.57;65.86;99943.59;2626147;89;21060;-86
2022/06/21 07:03:25;;;;;;;2.75;2.27;;;;;;;18.73;66.06;99944.41;2628551;89;21064;-88
2022/06/21 07:07:32;;;;;;;8.48;2.80;;;;;;;18.52;65.48;99966.21;2605619;89;21029;-88
2022/06/21 07:11:42;;;;;;;2.87;2.25;;;;;;;18.25;66.24;99951.00;2607174;89;21103;-88
2022/06/21 07:15:46;;;;;;;3.05;1.98;;;;;;;18.26;67.04;99952.67;2621094;89;21079;-88
2022/06/21 07:19:49;;;;;;;9.78;2.98;;;;;;;18.23;66.94;99967.84;2647801;88;21004;-89
2022/06/21 07:23:52;;;;;;;23.30;5.03;;;;;;;18.27;65.28;99957.88;2644423;88;21016;-87
2022/06/21 07:27:58;;;;;;;6.42;1.98;;;;;;;18.20;65.93;99964.19;2663439;88;21200;-91
2022/06/21 07:32:02;;;;;;;;;;;;;;;18.70;64.57;99973.41;2674664;87;21083;-91
2022/06/21 07:36:12;;;;;;;2.55;2.02;;;;;;;18.91;63.57;99958.32;2626463;89;20144;-87
2022/06/21 07:40:33;;;;;;;7.10;2.80;;;;;;;18.78;62.74;99958.15;2587690;91;21119;-93
2022/06/21 07:44:51;;;;;;;4.08;1.30;;;;;;;18.93;62.53;99960.31;2597265;89;21119;-91
2022/06/21 07:49:31;;;;;;;2.83;1.87;;;;;;;18.45;63.62;99971.99;2626693;89;21064;-93
2022/06/21 07:54:06;;;;;;;3.42;2.55;;;;;;;18.25;64.57;99973.39;2564741;91;21492;-90
2022/06/21 07:58:25;;;;;;;16.02;3.80;;;;;;;18.16;65.43;99979.86;2559123;90;21075;-91
2022/06/21 08:06:56;;;;;;;4.60;1.92;;;;;;;18.40;66.02;99984.16;2555883;91;21674;-92
2022/06/21 08:11:06;;;;;;;4.50;3.00;;;;;;;18.53;64.70;99985.38;2628619;89;21151;-92
2022/06/21 08:15:08;;;;;;;4.37;2.00;;;;;;;18.62;64.22;99996.91;2562525;89;21048;-91
2022/06/21 08:19:45;;;;;;;3.42;1.87;;;;;;;18.83;63.67;100000.17;2619564;89;21163;-92
2022/06/21 08:24:01;;;;;;;4.20;1.45;;;;;;;19.22;64.26;99988.23;2607163;89;21079;-94
2022/06/21 08:28:19;;;;;;;4.15;1.25;;;;;;;19.18;62.26;99986.14;2558139;91;21248;-91
2022/06/21 08:32:26;;;;;;;5.65;2.80;;;;;;;19.23;61.86;99997.18;2600591;89;21135;-92
2022/06/21 08:36:39;;;;;;;5.45;2.45;;;;;;;19.79;61.13;99996.49;2617927;89;21056;-90
2022/06/21 08:41:51;;;;;;;4.30;2.40;;;;;;;19.67;61.23;100000.76;2612899;89;21087;-89
2022/06/21 08:45:47;;;;;;;4.20;2.40;;;;;;;19.54;61.01;99997.39;2621961;89;21738;-92
2022/06/21 08:50:30;;;;;;;3.67;1.97;;;;;;;19.49;61.30;99991.24;2588621;89;21142;-91
2022/06/21 08:55:10;;;;;;;18.50;4.47;;;;;;;19.27;61.27;99997.12;2539831;92;21837;-91
2022/06/21 08:59:34;;;;;;;4.80;1.90;;;;;;;19.70;59.96;99999.02;2616807;89;21052;-92
2022/06/21 09:04:05;;;;;;;5.37;1.52;;;;;;;20.51;58.67;100002.38;2638850;89;21111;-91
2022/06/21 09:08:40;;;;;;;2.42;2.17;;;;;;;20.24;59.10;100002.17;2635699;89;21019;-92
2022/06/21 09:12:59;;;;;;;4.20;2.60;;;;;;;19.68;59.76;99992.45;2668015;88;21150;-90
2022/06/21 09:17:12;;;;;;;1.82;1.67;;;;;;;19.76;60.80;99980.70;2649209;88;21657;-90
2022/06/21 09:21:48;;;;;;;4.05;2.27;;;;;;;20.15;59.19;100010.11;2664424;87;21078;-89
2022/06/21 09:25:56;;;;;;;;;;;;;;;20.66;59.92;100011.70;2677566;87;21063;-89
2022/06/21 09:30:27;;;;;;;3.77;1.57;;;;;;;20.57;58.66;100005.62;2694972;88;20151;-90
2022/06/21 09:34:49;;;;;;;3.70;2.27;;;;;;;20.59;57.40;100011.66;2669462;87;21035;-91
2022/06/21 09:39:22;;;;;;;4.10;1.85;;;;;;;20.90;54.99;100013.62;2655847;87;21126;-89
2022/06/21 09:43:55;;;;;;;2.12;1.60;;;;;;;21.06;54.65;100000.30;2620547;89;21080;-87
2022/06/21 09:48:43;;;;;;;2.15;1.47;;;;;;;21.34;52.82;99991.22;2615506;89;21091;-91
2022/06/21 09:52:56;;;;;;;2.85;1.87;;;;;;;21.53;51.83;100001.25;2580798;91;21669;-91
2022/06/21 09:57:07;;;;;;;5.22;2.70;;;;;;;21.48;53.35;99990.22;2569770;91;21127;-89
2022/06/21 10:01:40;;;;;;;7.10;1.82;;;;;;;21.75;53.44;99999.75;2547188;92;21080;-90
2022/06/21 10:06:21;;;;;;;2.10;1.65;;;;;;;21.38;51.31;99991.11;2569473;88;21108;-89
2022/06/21 10:10:37;;;;;;;2.10;1.70;;;;;;;21.44;54.74;99997.59;2572228;91;21608;-89
2022/06/21 10:15:11;;;;;;;;;;;;;;;21.21;53.78;99982.02;2563146;91;21238;-89
2022/06/21 10:19:43;;;;;;;3.77;1.67;;;;;;;21.64;52.33;99994.93;2569813;91;20174;-88
2022/06/21 10:24:15;;;;;;;2.27;1.02;;;;;;;21.87;50.86;99995.08;2554967;91;21072;-90
2022/06/21 10:28:42;;;;;;;0.85;0.80;;;;;;;21.99;51.37;99997.46;2644510;89;21123;-87
2022/06/21 10:33:01;;;;;;;14.30;2.47;;;;;;;22.00;50.34;99999.66;2647215;89;21047;-91
2022/06/21 10:37:23;;;;;;;2.67;1.75;;;;;;;21.91;51.96;99994.97;2650168;88;21063;-89
2022/06/21 10:46:36;;;;;;;1.20;1.00;;;;;;;21.54;50.63;99973.69;2653648;88;21092;-92
2022/06/21 10:51:06;;;;;;;1.62;1.20;;;;;;;21.85;51.89;99980.92;2644595;87;21099;-91
2022/06/21 10:55:39;;;;;;;1.00;0.90;;;;;;;22.21;51.98;99985.89;2676626;88;21095;-92
2022/06/21 11:04:41;;;;;;;0.98;0.70;;;;;;;22.17;51.28;99994.64;2582153;89;21091;-90
2022/06/21 11:09:00;;;;;;;1.57;0.90;;;;;;;22.56;49.45;99979.39;2642544;88;21055;-89
2022/06/21 11:13:04;;;;;;;3.30;1.30;;;;;;;22.61;48.01;99991.80;2659340;88;21131;-92
2022/06/21 11:17:37;;;;;;;0.90;0.68;;;;;;;22.48;49.27;99987.77;2655311;88;21103;-89
2022/06/21 11:22:01;;;;;;;2.50;1.20;;;;;;;22.62;49.77;99979.06;2684400;88;21047;-89
2022/06/21 11:26:23;;;;;;;1.70;1.60;;;;;;;22.90;49.47;99980.66;2560617;90;21213;-91
2022/06/21 11:30:58;;;;;;;3.33;1.00;;;;;;;22.95;49.69;99980.84;2585010;90;21722;-89
2022/06/21 11:35:29;;;;;;;2.40;0.80;;;;;;;23.16;48.90;99983.74;2580741;90;21051;-92
2022/06/21 11:39:55;;;;;;;23.90;5.28;;;;;;;23.25;48.47;99980.25;2584051;89;21094;-92
2022/06/21 11:44:00;;;;;;;;;;;;;;;23.39;48.88;99971.56;2595847;90;21607;-91
2022/06/21 11:48:45;;;;;;;1.72;0.78;;;;;;;23.58;48.45;99977.05;2563800;91;20622;-90
2022/06/21 11:53:24;;;;;;;1.27;0.60;;;;;;;23.72;47.85;99986.77;2579363;90;21142;-90
2022/06/21 11:57:42;;;;;;;5.35;1.60;;;;;;;23.54;48.17;99977.50;2575293;90;21132;-90
2022/06/21 12:02:21;;;;;;;2.20;0.88;;;;;;;23.39;48.91;99968.85;2618057;88;21119;-92
2022/06/21 12:06:58;;;;;;;7.03;1.45;;;;;;;23.40;49.47;99978.66;2692808;88;21594;-92
2022/06/21 12:11:15;;;;;;;;;;;;;;;23.28;48.85;99972.25;2681824;88;21555;-91
2022/06/21 12:15:40;;;;;;;4.25;1.17;;;;;;;23.49;48.11;99975.97;2680207;86;20112;-93
2022/06/21 12:19:45;;;;;;;1.92;1.10;;;;;;;23.79;47.17;99975.35;2688110;87;21051;-94
2022/06/21 12:23:55;;;;;;;1.85;1.17;;;;;;;23.70;47.82;99976.66;2685617;87;21125;-91
2022/06/21 12:27:59;;;;;;;3.00;0.88;;;;;;;23.92;47.52;99976.28;2688423;86;21160;-84
2022/06/21 12:32:03;;;;;;;1.98;0.50;;;;;;;24.29;47.08;99966.88;2683102;85;21094;-88
2022/06/21 12:36:13;;;;;;;3.92;1.30;;;;;;;24.27;46.40;99973.06;2657188;87;21138;-86
2022/06/21 12:40:39;;;;;;;1.75;0.88;;;;;;;24.24;47.29;99962.66;2727566;83;67642;-59
2022/06/21 12:45:04;;;;;;;4.62;1.15;;;;;;;24.56;46.99;99959.78;2678449;88;21072;-58
2022/06/21 12:50:00;;;;;;;1.20;1.10;;;;;;;24.42;46.63;99965.09;2680696;86;21044;-59
2022/06/21 12:54:45;;;;;;;2.05;1.40;;;;;;;24.43;46.54;99959.95;2680749;89;21017;-59
2022/06/21 12:59:23;;;;;;;2.67;1.52;;;;;;;24.14;46.82;99955.53;2715460;86;21052;-59
2022/06/21 13:03:45;;;;;;;2.50;1.30;;;;;;;24.01;47.94;99956.45;2692672;87;21052;-58
2022/06/21 13:08:12;;;;;;;1.37;1.27;;;;;;;24.23;47.81;99946.05;2645631;89;21152;-59
2022/06/21 13:12:34;;;;;;;4.65;1.22;;;;;;;24.53;46.52;99946.65;2697050;87;21007;-59
2022/06/21 13:17:01;;;;;;;2.35;0.98;;;;;;;24.53;47.05;99950.73;2697055;85;21614;-58
2022/06/21 13:21:35;;;;;;;2.83;0.88;;;;;;;24.37;46.81;99933.14;2723796;85;20967;-59
2022/06/21 13:25:53;;;;;;;0.90;0.70;;;;;;;24.07;46.04;99927.06;2733805;85;21054;-58
2022/06/21 13:35:09;;;;;;;1.05;0.85;;;;;;;24.36;47.10;99930.94;2736515;87;21039;-64
2022/06/21 13:44:47;;;;;;;0.70;0.50;;;;;;;24.52;44.90;99917.29;2726396;86;21071;-63
2022/06/21 13:48:54;;;;;;;0.75;0.60;;;;;;;24.17;45.43;99927.39;2724806;87;21051;-59
2022/06/21 13:53:13;;;;;;;4.55;0.95;;;;;;;24.32;45.43;99909.35;2738137;86;20987;-58
2022/06/21 13:57:36;;;;;;;1.90;0.68;;;;;;;24.43;45.46;99915.10;2741397;86;21034;-58
2022/06/21 14:02:07;;;;;;;1.55;1.20;;;;;;;24.36;45.52;99909.74;2695097;86;21073;-58
2022/06/21 14:06:28;;;;;;;5.37;1.52;;;;;;;24.51;45.37;99903.91;2685142;87;21034;-58
2022/06/21 14:10:43;;;;;;;0.93;0.80;;;;;;;24.94;44.64;99894.80;2684751;88;21070;-58
2022/06/21 14:15:03;;;;;;;0.75;0.75;;;;;;;25.34;44.80;99892.55;2684819;87;21015;-58
2022/06/21 14:19:33;;;;;;;1.32;0.60;;;;;;;25.37;43.96;99888.02;2684692;87;21061;-60
2022/06/21 14:23:49;;;;;;;0.57;0.55;;;;;;;25.41;42.78;99883.77;2651899;85;73421;-91
2022/06/21 14:28:11;;;;;;;1.37;0.62;;;;;;;25.09;42.63;99882.16;2763162;84;21170;-89
2022/06/21 14:32:35;;;;;;;1.07;0.50;;;;;;;25.27;42.28;99887.23;2772098;84;20991;-89
2022/06/21 14:36:47;;;;;;;0.60;0.40;;;;;;;25.65;42.65;99879.21;2780263;84;21038;-86
2022/06/21 14:41:12;;;;;;;0.98;0.78;;;;;;;25.91;41.53;99877.59;2761010;84;21066;-90
2022/06/21 14:45:39;;;;;;;2.73;0.63;;;;;;;25.82;40.62;99881.20;2856575;83;21051;-91
2022/06/21 14:50:21;;;;;;;0.95;0.68;;;;;;;25.47;42.01;99885.56;2825330;83;21114;-88
2022/06/21 14:54:36;;;;;;;4.37;0.95;;;;;;;25.56;42.17;99886.60;2848266;83;21067;-88
2022/06/21 14:58:58;;;;;;;3.67;0.80;;;;;;;25.37;41.57;99887.47;2802079;84;21051;-88
2022/06/21 15:03:19;;;;;;;5.62;0.68;;;;;;;25.22;41.90;99886.56;2784423;84;21043;-90
2022/06/21 15:07:38;;;;;;;2.50;0.55;;;;;;;25.07;43.16;99874.76;2784108;84;21074;-92
2022/06/21 15:11:56;;;;;;;1.95;1.07;;;;;;;24.89;43.18;99874.27;2744953;86;21037;-90
2022/06/21 15:16:17;;;;;;;2.67;1.20;;;;;;;24.91;43.96;99874.86;2833876;83;21975;-92
2022/06/21 15:20:58;;;;;;;0.60;0.50;;;;;;;25.06;42.77;99874.98;2768607;84;21034;-92
2022/06/21 15:25:33;;;;;;;0.88;0.40;;;;;;;24.91;42.38;99876.77;2829104;83;21126;-93
2022/06/21 15:29:42;;;;;;;2.90;1.00;;;;;;;24.76;43.13;99878.52;2757937;85;21046;-93
2022/06/21 15:34:10;;;;;;;4.22;1.52;;;;;;;24.99;41.98;99879.70;2792040;84;21035;-89
2022/06/21 15:38:13;;;;;;;1.62;0.88;;;;;;;25.17;42.87;99879.64;2788687;84;20996;-91
2022/06/21 15:42:27;;;;;;;2.40;0.82;;;;;;;24.84;42.60;99880.09;2768435;83;21035;-92
2022/06/21 15:46:32;;;;;;;2.37;1.03;;;;;;;24.72;43.10;99877.30;2797427;84;21595;-92
2022/06/21 15:50:54;;;;;;;3.22;0.70;;;;;;;24.72;43.71;99877.30;2774063;84;21065;-92
2022/06/21 15:55:03;;;;;;;1.80;0.65;;;;;;;24.55;43.23;99879.28;2805457;84;21122;-92
2022/06/21 15:59:28;;;;;;;1.42;0.40;;;;;;;24.28;43.94;99878.26;2822476;83;21061;-93
2022/06/21 16:03:33;;;;;;;2.50;0.60;;;;;;;24.06;44.19;99877.34;2846025;83;21327;-92
2022/06/21 16:07:39;;;;;;;1.60;0.80;;;;;;;23.95;44.73;99875.33;2785746;84;20992;-87
2022/06/21 16:11:45;;;;;;;1.20;0.78;;;;;;;23.86;45.13;99876.15;2745299;86;21121;-93
2022/06/21 16:16:01;;;;;;;1.32;1.05;;;;;;;23.72;44.79;99875.45;2765078;84;21050;-92
2022/06/21 16:20:11;;;;;;;4.25;1.37;;;;;;;23.60;45.13;99871.82;2776795;84;21058;-90
2022/06/21 16:24:32;;;;;;;2.35;0.50;;;;;;;23.46;45.71;99873.28;2785727;84;21022;-92
2022/06/21 16:28:54;;;;;;;0.78;0.57;;;;;;;23.41;45.35;99879.06;2810610;83;21078;-93
2022/06/21 16:33:17;;;;;;;7.05;0.82;;;;;;;23.45;45.80;99865.34;2770966;85;21096;-93
2022/06/21 16:37:23;;;;;;;2.40;0.68;;;;;;;23.57;45.51;99870.87;2739929;85;21076;-90
2022/06/21 16:46:12;;;;;;;3.05;1.05;;;;;;;23.94;45.87;99862.81;2781963;85;21082;-92
2022/06/21 16:50:48;;;;;;;;;;;;;;;24.06;43.79;99859.69;2755294;85;21114;-91
2022/06/21 16:55:03;;;;;;;1.95;0.95;;;;;;;24.06;43.84;99853.41;2818712;83;20159;-90
2022/06/21 16:59:17;;;;;;;1.35;1.25;;;;;;;23.98;44.33;99853.69;2779826;85;21087;-89
2022/06/21 17:03:18;;;;;;;1.02;0.85;;;;;;;23.90;44.64;99856.17;2754577;85;21090;-91
2022/06/21 17:07:25;;;;;;;6.33;0.93;;;;;;;23.80;44.93;99860.77;2809483;83;21400;-88
2022/06/21 17:11:26;;;;;;;1.52;0.90;;;;;;;23.74;45.64;99859.77;2809415;82;21038;-90
2022/06/21 17:15:38;;;;;;;1.40;0.90;;;;;;;23.76;45.93;99864.44;2804226;83;21025;-91
2022/06/21 17:19:47;;;;;;;1.98;0.53;;;;;;;23.75;45.98;99860.06;2821601;83;20998;-91
2022/06/21 17:24:03;;;;;;;1.05;0.95;;;;;;;23.76;45.87;99859.55;2770019;84;21072;-91
2022/06/21 17:28:28;;;;;;;1.22;0.60;;;;;;;23.75;46.01;99853.82;2768453;84;20993;-88
2022/06/21 17:32:38;;;;;;;9.10;1.25;;;;;;;23.66;46.53;99862.78;2786008;84;21087;-91
2022/06/21 17:36:47;;;;;;;1.77;0.62;;;;;;;23.66;46.66;99860.06;2766484;84;21035;-88
2022/06/21 17:41:02;;;;;;;5.35;1.10;;;;;;;23.59;46.59;99855.23;2768267;84;21016;-90
2022/06/21 17:45:19;;;;;;;;;;;;;;;23.52;46.83;99860.17;2785643;83;21047;-90
2022/06/21 17:49:29;;;;;;;3.50;0.65;;;;;;;23.42;47.09;99859.02;2773293;84;20132;-91
2022/06/21 17:53:36;;;;;;;3.92;0.85;;;;;;;23.29;46.98;99851.30;2775834;84;21079;-91
2022/06/21 17:57:48;;;;;;;2.92;0.50;;;;;;;23.13;47.10;99849.09;2746814;85;21685;-90
2022/06/21 18:02:09;;;;;;;1.55;1.05;;;;;;;22.99;47.22;99844.27;2707243;85;21081;-91
2022/06/21 18:06:26;;;;;;;1.00;0.65;;;;;;;22.85;47.85;99848.44;2761581;85;21546;-92
2022/06/21 18:10:51;;;;;;;1.65;0.85;;;;;;;22.70;48.40;99847.89;2721229;85;21057;-90
2022/06/21 18:14:53;;;;;;;0.55;0.40;;;;;;;22.58;49.13;99851.81;2736964;85;21089;-90
2022/06/21 18:19:21;;;;;;;1.07;0.68;;;;;;;22.40;49.62;99858.22;2734295;85;20995;-90
2022/06/21 18:23:46;;;;;;;2.45;0.95;;;;;;;22.24;50.27;99866.81;2688240;87;21129;-90
2022/06/21 18:28:25;;;;;;;16.30;3.67;;;;;;;22.02;50.56;99872.50;2689743;87;21033;-90
2022/06/21 18:33:01;;;;;;;4.83;1.12;;;;;;;21.88;50.92;99876.27;2705169;87;21110;-91
2022/06/21 18:37:33;;;;;;;4.50;1.55;;;;;;;21.73;51.16;99878.67;2704717;87;21078;-89
2022/06/21 18:41:43;;;;;;;20.85;2.95;;;;;;;21.58;51.08;99872.61;2705278;86;21031;-92
2022/06/21 18:45:59;;;;;;;12.47;2.52;;;;;;;21.48;51.79;99879.28;2704760;86;21065;-92
2022/06/21 18:50:17;;;;;;;8.73;2.12;;;;;;;21.35;52.17;99880.62;2693154;86;21057;-91
2022/06/21 18:54:47;;;;;;;4.75;2.37;;;;;;;21.23;52.85;99879.89;2677528;86;21118;-93
2022/06/21 18:59:22;;;;;;;6.20;2.40;;;;;;;21.05;53.66;99879.66;2734323;84;21067;-91
2022/06/21 19:03:47;;;;;;;3.20;1.72;;;;;;;20.82;54.20;99870.86;2730660;85;21072;-90
2022/06/21 19:08:33;;;;;;;1.95;0.90;;;;;;;20.59;54.87;99884.67;2745648;84;21082;-90
2022/06/21 19:12:52;;;;;;;59.10;9.55;;;;;;;20.40;55.14;99883.03;2732185;84;21055;-91
2022/06/21 19:17:14;;;;;;;4.83;1.27;;;;;;;20.19;55.62;99892.58;2724985;85;21016;-91
2022/06/21 19:21:37;;;;;;;2.15;1.15;;;;;;;20.03;55.80;99904.53;2738898;85;21035;-90
2022/06/21 19:25:53;;;;;;;4.00;0.98;;;;;;;19.91;56.22;99909.62;2796745;83;21089;-87
2022/06/21 19:30:05;;;;;;;8.20;1.82;;;;;;;19.78;56.87;99914.41;2773086;81;21036;-90
2022/06/21 19:34:49;;;;;;;1.72;1.20;;;;;;;19.65;57.36;99924.55;2864776;81;21008;-88
2022/06/21 19:39:22;;;;;;;10.93;1.70;;;;;;;19.49;57.97;99921.11;2841107;82;21039;-89
2022/06/21 19:43:38;;;;;;;3.27;1.75;;;;;;;19.34;58.17;99918.46;2782107;83;21005;-90
2022/06/21 19:47:56;;;;;;;1.62;1.15;;;;;;;19.23;58.25;99925.20;2798534;83;21148;-91
2022/06/21 19:52:17;;;;;;;2.77;1.45;;;;;;;19.13;58.74;99930.09;2788238;83;21040;-90
2022/06/21 19:56:23;;;;;;;14.00;4.05;;;;;;;18.97;58.93;99936.00;2787983;84;21040;-91
2022/06/21 20:00:28;;;;;;;3.02;1.40;;;;;;;18.84;59.32;99942.06;2786708;84;21094;-89
2022/06/21 20:05:00;;;;;;;2.92;1.32;;;;;;;18.68;59.81;99937.73;2777832;84;21481;-91
2022/06/21 20:09:26;;;;;;;3.77;1.02;;;;;;;18.53;60.07;99944.98;2781576;83;21067;-87
2022/06/21 20:13:34;;;;;;;;;;;;;;;18.40;60.38;99947.81;2805796;83;21095;-91
2022/06/21 20:17:41;;;;;;;3.22;2.05;;;;;;;18.28;60.87;99952.00;2747035;85;20129;-93
2022/06/21 20:21:51;;;;;;;2.25;1.55;;;;;;;18.17;60.69;99953.27;2835092;83;21044;-91
2022/06/21 20:26:30;;;;;;;3.20;1.12;;;;;;;18.06;60.94;99963.16;2768932;85;21062;-90
2022/06/21 20:30:36;;;;;;;17.32;2.65;;;;;;;17.98;61.28;99961.34;2780520;84;21043;-95
2022/06/21 20:34:45;;;;;;;3.02;1.95;;;;;;;17.81;61.57;99969.55;2773894;85;21089;-93
2022/06/21 20:39:13;;;;;;;9.75;2.95;;;;;;;17.66;61.40;99961.94;2747299;85;21019;-94
2022/06/21 20:43:22;;;;;;;148.57;30.72;;;;;;;17.53;61.58;99963.89;2767889;84;21083;-92
2022/06/21 20:48:05;;;;;;;171.43;35.85;;;;;;;17.45;62.13;99971.50;2761481;85;21091;-92
2022/06/21 20:52:29;;;;;;;195.60;36.95;;;;;;;17.36;62.24;99964.52;2755917;85;21201;-94